sensor_id;sensor_type;location;lat;lon;timestamp;P1;durP1;ratioP1;P2;durP2;ratioP2
76157;SDS011;64907;51.574;6.502;2023-02-28T00:00:51;8.85;;;6.30;;
76157;SDS011;64907;51.574;6.502;2023-02-28T00:03:16;7.97;;;5.72;;
76157;SDS011;64907;51.574;6.502;2023-02-28T00:05:42;8.57;;;6.70;;
76157;SDS011;64907;51.574;6.502;2023-02-28T00:08:07;8.75;;;6.50;;
76157;SDS011;64907;51.574;6.502;2023-02-28T00:13:03;12.05;;;6.55;;
76157;SDS011;64907;51.574;6.502;2023-02-28T00:15:29;9.05;;;6.22;;
76157;SDS011;64907;51.574;6.502;2023-02-28T00:17:54;8.32;;;6.45;;
76157;SDS011;64907;51.574;6.502;2023-02-28T00:20:29;7.10;;;6.40;;
76157;SDS011;64907;51.574;6.502;2023-02-28T00:22:54;9.70;;;7.32;;
76157;SDS011;64907;51.574;6.502;2023-02-28T00:25:21;10.60;;;6.53;;
76157;SDS011;64907;51.574;6.502;2023-02-28T00:27:47;8.45;;;6.80;;
76157;SDS011;64907;51.574;6.502;2023-02-28T00:30:13;12.25;;;7.22;;
76157;SDS011;64907;51.574;6.502;2023-02-28T00:32:40;8.70;;;6.95;;
76157;SDS011;64907;51.574;6.502;2023-02-28T00:35:06;10.82;;;6.72;;
76157;SDS011;64907;51.574;6.502;2023-02-28T00:37:32;10.65;;;7.30;;
76157;SDS011;64907;51.574;6.502;2023-02-28T00:39:57;9.63;;;7.50;;
76157;SDS011;64907;51.574;6.502;2023-02-28T00:42:22;8.30;;;7.45;;
76157;SDS011;64907;51.574;6.502;2023-02-28T00:44:47;10.27;;;6.90;;
76157;SDS011;64907;51.574;6.502;2023-02-28T00:47:13;7.65;;;6.85;;
76157;SDS011;64907;51.574;6.502;2023-02-28T00:49:38;12.57;;;6.72;;
76157;SDS011;64907;51.574;6.502;2023-02-28T00:52:03;11.00;;;7.50;;
76157;SDS011;64907;51.574;6.502;2023-02-28T00:54:28;8.75;;;7.63;;
76157;SDS011;64907;51.574;6.502;2023-02-28T00:56:53;10.68;;;7.65;;
76157;SDS011;64907;51.574;6.502;2023-02-28T00:59:19;11.75;;;8.05;;
76157;SDS011;64907;51.574;6.502;2023-02-28T01:01:46;10.88;;;7.18;;
76157;SDS011;64907;51.574;6.502;2023-02-28T01:04:12;9.43;;;7.28;;
76157;SDS011;64907;51.574;6.502;2023-02-28T01:06:38;11.23;;;7.40;;
76157;SDS011;64907;51.574;6.502;2023-02-28T01:09:04;11.75;;;7.53;;
76157;SDS011;64907;51.574;6.502;2023-02-28T01:11:29;11.38;;;7.40;;
76157;SDS011;64907;51.574;6.502;2023-02-28T01:13:58;10.75;;;7.43;;
76157;SDS011;64907;51.574;6.502;2023-02-28T01:16:23;16.20;;;7.78;;
76157;SDS011;64907;51.574;6.502;2023-02-28T01:18:48;9.85;;;7.68;;
76157;SDS011;64907;51.574;6.502;2023-02-28T01:21:15;11.07;;;7.80;;
76157;SDS011;64907;51.574;6.502;2023-02-28T01:23:40;9.15;;;7.40;;
76157;SDS011;64907;51.574;6.502;2023-02-28T01:26:10;11.93;;;7.80;;
76157;SDS011;64907;51.574;6.502;2023-02-28T01:28:36;10.60;;;8.63;;
76157;SDS011;64907;51.574;6.502;2023-02-28T01:31:01;9.60;;;7.72;;
76157;SDS011;64907;51.574;6.502;2023-02-28T01:33:27;10.55;;;7.28;;
76157;SDS011;64907;51.574;6.502;2023-02-28T01:36:00;8.70;;;6.93;;
76157;SDS011;64907;51.574;6.502;2023-02-28T01:38:25;11.07;;;6.97;;
76157;SDS011;64907;51.574;6.502;2023-02-28T01:40:51;13.40;;;7.32;;
76157;SDS011;64907;51.574;6.502;2023-02-28T01:43:21;10.20;;;6.68;;
76157;SDS011;64907;51.574;6.502;2023-02-28T01:45:46;9.98;;;6.63;;
76157;SDS011;64907;51.574;6.502;2023-02-28T01:48:11;8.97;;;6.50;;
76157;SDS011;64907;51.574;6.502;2023-02-28T01:50:38;9.40;;;6.10;;
76157;SDS011;64907;51.574;6.502;2023-02-28T01:53:05;7.95;;;6.20;;
76157;SDS011;64907;51.574;6.502;2023-02-28T01:55:31;9.30;;;7.30;;
76157;SDS011;64907;51.574;6.502;2023-02-28T01:57:58;7.18;;;6.43;;
76157;SDS011;64907;51.574;6.502;2023-02-28T02:00:25;11.52;;;6.30;;
76157;SDS011;64907;51.574;6.502;2023-02-28T02:02:53;7.20;;;6.40;;
76157;SDS011;64907;51.574;6.502;2023-02-28T02:05:20;11.52;;;6.75;;
76157;SDS011;64907;51.574;6.502;2023-02-28T02:07:46;6.93;;;5.32;;
76157;SDS011;64907;51.574;6.502;2023-02-28T02:15:11;6.90;;;6.20;;
76157;SDS011;64907;51.574;6.502;2023-02-28T02:17:42;6.63;;;5.90;;
76157;SDS011;64907;51.574;6.502;2023-02-28T02:40:56;6.22;;;5.22;;
76157;SDS011;64907;51.574;6.502;2023-02-28T02:43:25;6.53;;;5.93;;
76157;SDS011;64907;51.574;6.502;2023-02-28T02:45:55;14.40;;;5.90;;
76157;SDS011;64907;51.574;6.502;2023-02-28T02:48:24;8.00;;;6.47;;
76157;SDS011;64907;51.574;6.502;2023-02-28T02:50:51;8.23;;;5.30;;
76157;SDS011;64907;51.574;6.502;2023-02-28T02:53:18;7.60;;;5.60;;
76157;SDS011;64907;51.574;6.502;2023-02-28T02:55:46;6.13;;;5.38;;
76157;SDS011;64907;51.574;6.502;2023-02-28T02:58:13;6.05;;;5.45;;
76157;SDS011;64907;51.574;6.502;2023-02-28T03:00:41;8.52;;;6.15;;
76157;SDS011;64907;51.574;6.502;2023-02-28T03:03:07;8.20;;;6.28;;
76157;SDS011;64907;51.574;6.502;2023-02-28T03:05:46;6.65;;;5.30;;
76157;SDS011;64907;51.574;6.502;2023-02-28T03:08:11;6.22;;;5.47;;
76157;SDS011;64907;51.574;6.502;2023-02-28T03:10:38;8.77;;;6.03;;
76157;SDS011;64907;51.574;6.502;2023-02-28T03:18:36;12.18;;;7.40;;
76157;SDS011;64907;51.574;6.502;2023-02-28T03:21:18;10.63;;;7.32;;
76157;SDS011;64907;51.574;6.502;2023-02-28T03:23:48;6.88;;;6.10;;
76157;SDS011;64907;51.574;6.502;2023-02-28T03:26:22;10.05;;;6.10;;
76157;SDS011;64907;51.574;6.502;2023-02-28T03:31:30;7.22;;;5.72;;
76157;SDS011;64907;51.574;6.502;2023-02-28T03:33:59;7.10;;;6.07;;
76157;SDS011;64907;51.574;6.502;2023-02-28T03:36:30;8.18;;;6.07;;
76157;SDS011;64907;51.574;6.502;2023-02-28T03:38:59;10.07;;;6.82;;
76157;SDS011;64907;51.574;6.502;2023-02-28T03:41:38;8.80;;;7.65;;
76157;SDS011;64907;51.574;6.502;2023-02-28T03:44:07;8.57;;;6.95;;
76157;SDS011;64907;51.574;6.502;2023-02-28T03:46:35;13.18;;;7.18;;
76157;SDS011;64907;51.574;6.502;2023-02-28T03:49:06;8.05;;;6.47;;
76157;SDS011;64907;51.574;6.502;2023-02-28T03:51:33;9.70;;;6.07;;
76157;SDS011;64907;51.574;6.502;2023-02-28T03:54:02;8.88;;;6.63;;
76157;SDS011;64907;51.574;6.502;2023-02-28T03:56:31;13.30;;;6.50;;
76157;SDS011;64907;51.574;6.502;2023-02-28T03:59:00;7.47;;;6.78;;
76157;SDS011;64907;51.574;6.502;2023-02-28T04:03:56;8.05;;;6.78;;
76157;SDS011;64907;51.574;6.502;2023-02-28T04:06:22;9.18;;;6.15;;
76157;SDS011;64907;51.574;6.502;2023-02-28T04:08:47;8.95;;;6.35;;
76157;SDS011;64907;51.574;6.502;2023-02-28T04:11:18;8.13;;;6.25;;
76157;SDS011;64907;51.574;6.502;2023-02-28T04:13:44;9.55;;;6.38;;
76157;SDS011;64907;51.574;6.502;2023-02-28T04:16:09;8.90;;;6.70;;
76157;SDS011;64907;51.574;6.502;2023-02-28T04:18:38;7.93;;;6.40;;
76157;SDS011;64907;51.574;6.502;2023-02-28T04:21:03;11.85;;;7.53;;
76157;SDS011;64907;51.574;6.502;2023-02-28T04:23:29;8.00;;;7.20;;
76157;SDS011;64907;51.574;6.502;2023-02-28T04:26:04;8.85;;;7.22;;
76157;SDS011;64907;51.574;6.502;2023-02-28T04:28:30;10.52;;;7.68;;
76157;SDS011;64907;51.574;6.502;2023-02-28T04:30:59;12.48;;;7.22;;
76157;SDS011;64907;51.574;6.502;2023-02-28T04:36:04;12.40;;;7.63;;
76157;SDS011;64907;51.574;6.502;2023-02-28T04:38:32;8.00;;;6.95;;
76157;SDS011;64907;51.574;6.502;2023-02-28T04:40:58;9.55;;;6.63;;
76157;SDS011;64907;51.574;6.502;2023-02-28T04:43:23;7.88;;;6.68;;
76157;SDS011;64907;51.574;6.502;2023-02-28T04:45:48;7.07;;;6.10;;
76157;SDS011;64907;51.574;6.502;2023-02-28T04:48:13;10.80;;;7.20;;
76157;SDS011;64907;51.574;6.502;2023-02-28T04:50:38;14.15;;;6.43;;
76157;SDS011;64907;51.574;6.502;2023-02-28T04:53:04;8.68;;;6.20;;
76157;SDS011;64907;51.574;6.502;2023-02-28T04:55:29;10.57;;;7.75;;
76157;SDS011;64907;51.574;6.502;2023-02-28T04:57:54;12.45;;;7.53;;
76157;SDS011;64907;51.574;6.502;2023-02-28T05:00:19;10.73;;;7.45;;
76157;SDS011;64907;51.574;6.502;2023-02-28T05:02:45;11.10;;;7.35;;
76157;SDS011;64907;51.574;6.502;2023-02-28T05:05:10;7.65;;;6.90;;
76157;SDS011;64907;51.574;6.502;2023-02-28T05:07:35;13.80;;;8.00;;
76157;SDS011;64907;51.574;6.502;2023-02-28T05:10:00;10.38;;;7.20;;
76157;SDS011;64907;51.574;6.502;2023-02-28T05:12:25;8.63;;;6.85;;
76157;SDS011;64907;51.574;6.502;2023-02-28T05:14:51;9.23;;;7.32;;
76157;SDS011;64907;51.574;6.502;2023-02-28T05:17:16;8.32;;;6.93;;
76157;SDS011;64907;51.574;6.502;2023-02-28T05:19:41;10.13;;;7.05;;
76157;SDS011;64907;51.574;6.502;2023-02-28T05:22:11;10.63;;;6.75;;
76157;SDS011;64907;51.574;6.502;2023-02-28T05:24:39;8.18;;;7.10;;
76157;SDS011;64907;51.574;6.502;2023-02-28T05:27:04;9.73;;;6.50;;
76157;SDS011;64907;51.574;6.502;2023-02-28T05:29:29;10.02;;;6.65;;
76157;SDS011;64907;51.574;6.502;2023-02-28T05:31:55;9.20;;;6.85;;
76157;SDS011;64907;51.574;6.502;2023-02-28T05:34:20;7.45;;;6.70;;
76157;SDS011;64907;51.574;6.502;2023-02-28T05:36:45;7.93;;;6.50;;
76157;SDS011;64907;51.574;6.502;2023-02-28T05:39:10;9.02;;;5.97;;
76157;SDS011;64907;51.574;6.502;2023-02-28T05:41:38;6.45;;;5.85;;
76157;SDS011;64907;51.574;6.502;2023-02-28T05:44:03;12.60;;;6.07;;
76157;SDS011;64907;51.574;6.502;2023-02-28T05:46:28;13.57;;;5.82;;
76157;SDS011;64907;51.574;6.502;2023-02-28T05:48:53;6.95;;;5.75;;
76157;SDS011;64907;51.574;6.502;2023-02-28T05:51:20;7.65;;;6.65;;
76157;SDS011;64907;51.574;6.502;2023-02-28T05:53:45;14.57;;;9.10;;
76157;SDS011;64907;51.574;6.502;2023-02-28T05:56:11;9.70;;;6.78;;
76157;SDS011;64907;51.574;6.502;2023-02-28T05:58:36;8.55;;;6.88;;
76157;SDS011;64907;51.574;6.502;2023-02-28T06:01:19;9.98;;;5.80;;
76157;SDS011;64907;51.574;6.502;2023-02-28T06:03:44;6.40;;;5.82;;
76157;SDS011;64907;51.574;6.502;2023-02-28T06:06:09;5.88;;;5.20;;
76157;SDS011;64907;51.574;6.502;2023-02-28T06:08:35;7.25;;;5.50;;
76157;SDS011;64907;51.574;6.502;2023-02-28T06:11:02;9.68;;;6.03;;
76157;SDS011;64907;51.574;6.502;2023-02-28T06:13:30;6.15;;;5.47;;
76157;SDS011;64907;51.574;6.502;2023-02-28T06:15:56;7.50;;;6.05;;
76157;SDS011;64907;51.574;6.502;2023-02-28T06:18:21;8.00;;;5.80;;
76157;SDS011;64907;51.574;6.502;2023-02-28T06:20:57;6.57;;;5.70;;
76157;SDS011;64907;51.574;6.502;2023-02-28T06:23:22;6.25;;;5.50;;
76157;SDS011;64907;51.574;6.502;2023-02-28T06:25:54;7.88;;;6.00;;
76157;SDS011;64907;51.574;6.502;2023-02-28T06:28:23;7.20;;;5.93;;
76157;SDS011;64907;51.574;6.502;2023-02-28T06:30:48;8.38;;;6.50;;
76157;SDS011;64907;51.574;6.502;2023-02-28T06:33:13;6.88;;;6.15;;
76157;SDS011;64907;51.574;6.502;2023-02-28T06:35:38;8.23;;;5.75;;
76157;SDS011;64907;51.574;6.502;2023-02-28T06:40:33;7.60;;;5.65;;
76157;SDS011;64907;51.574;6.502;2023-02-28T06:43:00;6.05;;;5.45;;
76157;SDS011;64907;51.574;6.502;2023-02-28T06:45:25;8.88;;;6.22;;
76157;SDS011;64907;51.574;6.502;2023-02-28T06:47:51;7.28;;;6.57;;
76157;SDS011;64907;51.574;6.502;2023-02-28T06:50:17;7.75;;;5.97;;
76157;SDS011;64907;51.574;6.502;2023-02-28T06:52:45;7.45;;;5.82;;
76157;SDS011;64907;51.574;6.502;2023-02-28T06:57:38;8.65;;;6.80;;
76157;SDS011;64907;51.574;6.502;2023-02-28T07:00:06;7.32;;;5.32;;
76157;SDS011;64907;51.574;6.502;2023-02-28T07:02:32;9.27;;;5.60;;
76157;SDS011;64907;51.574;6.502;2023-02-28T07:04:57;7.35;;;5.57;;
76157;SDS011;64907;51.574;6.502;2023-02-28T07:07:23;10.02;;;6.03;;
76157;SDS011;64907;51.574;6.502;2023-02-28T07:09:48;9.40;;;5.72;;
76157;SDS011;64907;51.574;6.502;2023-02-28T07:12:13;7.15;;;5.07;;
76157;SDS011;64907;51.574;6.502;2023-02-28T07:14:38;5.93;;;4.93;;
76157;SDS011;64907;51.574;6.502;2023-02-28T07:17:03;6.55;;;5.47;;
76157;SDS011;64907;51.574;6.502;2023-02-28T07:19:29;8.70;;;6.07;;
76157;SDS011;64907;51.574;6.502;2023-02-28T07:21:54;6.68;;;5.53;;
76157;SDS011;64907;51.574;6.502;2023-02-28T07:24:19;8.00;;;6.13;;
76157;SDS011;64907;51.574;6.502;2023-02-28T07:26:44;8.57;;;5.85;;
76157;SDS011;64907;51.574;6.502;2023-02-28T07:29:09;6.43;;;5.07;;
76157;SDS011;64907;51.574;6.502;2023-02-28T07:31:35;6.65;;;5.70;;
76157;SDS011;64907;51.574;6.502;2023-02-28T07:34:00;10.15;;;5.47;;
76157;SDS011;64907;51.574;6.502;2023-02-28T07:36:25;5.80;;;5.22;;
76157;SDS011;64907;51.574;6.502;2023-02-28T07:38:50;5.82;;;4.85;;
76157;SDS011;64907;51.574;6.502;2023-02-28T07:41:16;8.65;;;5.18;;
76157;SDS011;64907;51.574;6.502;2023-02-28T07:43:41;5.28;;;4.68;;
76157;SDS011;64907;51.574;6.502;2023-02-28T07:46:08;5.32;;;4.55;;
76157;SDS011;64907;51.574;6.502;2023-02-28T07:48:34;6.15;;;4.45;;
76157;SDS011;64907;51.574;6.502;2023-02-28T07:50:59;4.82;;;4.53;;
76157;SDS011;64907;51.574;6.502;2023-02-28T07:53:25;5.50;;;4.95;;
76157;SDS011;64907;51.574;6.502;2023-02-28T07:55:50;4.93;;;4.43;;
76157;SDS011;64907;51.574;6.502;2023-02-28T08:00:44;5.80;;;4.47;;
76157;SDS011;64907;51.574;6.502;2023-02-28T08:03:11;5.70;;;4.68;;
76157;SDS011;64907;51.574;6.502;2023-02-28T08:05:40;5.05;;;4.60;;
76157;SDS011;64907;51.574;6.502;2023-02-28T08:08:05;7.53;;;4.75;;
76157;SDS011;64907;51.574;6.502;2023-02-28T08:10:31;4.97;;;4.47;;
76157;SDS011;64907;51.574;6.502;2023-02-28T08:12:56;4.65;;;4.30;;
76157;SDS011;64907;51.574;6.502;2023-02-28T08:15:21;5.22;;;4.63;;
76157;SDS011;64907;51.574;6.502;2023-02-28T08:17:46;5.07;;;4.25;;
76157;SDS011;64907;51.574;6.502;2023-02-28T08:20:11;4.53;;;3.90;;
76157;SDS011;64907;51.574;6.502;2023-02-28T08:22:36;6.07;;;3.70;;
76157;SDS011;64907;51.574;6.502;2023-02-28T08:25:02;7.77;;;4.07;;
76157;SDS011;64907;51.574;6.502;2023-02-28T08:27:27;4.63;;;4.22;;
76157;SDS011;64907;51.574;6.502;2023-02-28T08:29:52;7.53;;;4.10;;
76157;SDS011;64907;51.574;6.502;2023-02-28T08:32:17;4.30;;;4.00;;
76157;SDS011;64907;51.574;6.502;2023-02-28T08:34:42;4.63;;;4.22;;
76157;SDS011;64907;51.574;6.502;2023-02-28T08:37:07;4.30;;;4.00;;
76157;SDS011;64907;51.574;6.502;2023-02-28T08:39:36;4.57;;;4.18;;
76157;SDS011;64907;51.574;6.502;2023-02-28T08:42:02;4.35;;;3.95;;
76157;SDS011;64907;51.574;6.502;2023-02-28T08:44:28;4.82;;;3.80;;
76157;SDS011;64907;51.574;6.502;2023-02-28T08:46:53;4.07;;;3.78;;
76157;SDS011;64907;51.574;6.502;2023-02-28T08:49:18;4.25;;;3.95;;
76157;SDS011;64907;51.574;6.502;2023-02-28T08:51:43;4.20;;;3.42;;
76157;SDS011;64907;51.574;6.502;2023-02-28T08:54:09;8.52;;;3.60;;
76157;SDS011;64907;51.574;6.502;2023-02-28T08:56:35;7.25;;;3.63;;
76157;SDS011;64907;51.574;6.502;2023-02-28T08:59:01;4.38;;;3.20;;
76157;SDS011;64907;51.574;6.502;2023-02-28T09:01:27;5.20;;;3.50;;
76157;SDS011;64907;51.574;6.502;2023-02-28T09:03:53;3.60;;;3.30;;
76157;SDS011;64907;51.574;6.502;2023-02-28T09:06:19;3.95;;;3.47;;
76157;SDS011;64907;51.574;6.502;2023-02-28T09:08:44;3.33;;;3.00;;
76157;SDS011;64907;51.574;6.502;2023-02-28T09:11:18;2.90;;;2.80;;
76157;SDS011;64907;51.574;6.502;2023-02-28T09:13:44;3.72;;;3.42;;
76157;SDS011;64907;51.574;6.502;2023-02-28T09:16:10;2.97;;;2.78;;
76157;SDS011;64907;51.574;6.502;2023-02-28T09:18:36;3.30;;;2.80;;
76157;SDS011;64907;51.574;6.502;2023-02-28T09:21:12;2.70;;;2.40;;
76157;SDS011;64907;51.574;6.502;2023-02-28T09:23:39;3.17;;;2.88;;
76157;SDS011;64907;51.574;6.502;2023-02-28T09:26:04;2.65;;;2.45;;
76157;SDS011;64907;51.574;6.502;2023-02-28T09:28:30;3.38;;;2.60;;
76157;SDS011;64907;51.574;6.502;2023-02-28T09:30:55;4.72;;;2.60;;
76157;SDS011;64907;51.574;6.502;2023-02-28T09:33:22;2.90;;;2.70;;
76157;SDS011;64907;51.574;6.502;2023-02-28T09:35:48;2.63;;;2.42;;
76157;SDS011;64907;51.574;6.502;2023-02-28T09:38:15;3.08;;;2.40;;
76157;SDS011;64907;51.574;6.502;2023-02-28T09:40:50;2.70;;;2.50;;
76157;SDS011;64907;51.574;6.502;2023-02-28T09:43:16;2.35;;;2.25;;
76157;SDS011;64907;51.574;6.502;2023-02-28T09:45:43;2.42;;;2.33;;
76157;SDS011;64907;51.574;6.502;2023-02-28T09:48:14;2.60;;;2.40;;
76157;SDS011;64907;51.574;6.502;2023-02-28T09:53:36;1.85;;;1.75;;
76157;SDS011;64907;51.574;6.502;2023-02-28T09:56:11;3.03;;;2.42;;
76157;SDS011;64907;51.574;6.502;2023-02-28T10:01:19;2.50;;;1.67;;
76157;SDS011;64907;51.574;6.502;2023-02-28T10:04:00;1.90;;;1.80;;
76157;SDS011;64907;51.574;6.502;2023-02-28T10:06:29;2.55;;;1.98;;
76157;SDS011;64907;51.574;6.502;2023-02-28T10:09:02;2.55;;;1.80;;
76157;SDS011;64907;51.574;6.502;2023-02-28T10:11:28;1.90;;;1.90;;
76157;SDS011;64907;51.574;6.502;2023-02-28T10:13:59;2.42;;;2.03;;
76157;SDS011;64907;51.574;6.502;2023-02-28T10:16:29;2.20;;;2.10;;
76157;SDS011;64907;51.574;6.502;2023-02-28T10:18:57;3.15;;;1.90;;
76157;SDS011;64907;51.574;6.502;2023-02-28T10:21:35;2.00;;;1.90;;
76157;SDS011;64907;51.574;6.502;2023-02-28T10:24:13;2.30;;;2.10;;
76157;SDS011;64907;51.574;6.502;2023-02-28T10:26:41;3.40;;;2.08;;
76157;SDS011;64907;51.574;6.502;2023-02-28T10:29:08;1.83;;;1.73;;
76157;SDS011;64907;51.574;6.502;2023-02-28T10:31:34;2.17;;;2.08;;
76157;SDS011;64907;51.574;6.502;2023-02-28T10:33:59;2.60;;;2.00;;
76157;SDS011;64907;51.574;6.502;2023-02-28T10:36:25;1.65;;;1.65;;
76157;SDS011;64907;51.574;6.502;2023-02-28T10:38:50;1.65;;;1.65;;
76157;SDS011;64907;51.574;6.502;2023-02-28T10:41:16;2.05;;;1.95;;
76157;SDS011;64907;51.574;6.502;2023-02-28T10:43:51;2.78;;;2.08;;
76157;SDS011;64907;51.574;6.502;2023-02-28T10:46:17;2.85;;;2.20;;
76157;SDS011;64907;51.574;6.502;2023-02-28T10:48:57;2.10;;;2.00;;
76157;SDS011;64907;51.574;6.502;2023-02-28T10:51:25;3.22;;;2.00;;
76157;SDS011;64907;51.574;6.502;2023-02-28T10:53:51;2.13;;;1.90;;
76157;SDS011;64907;51.574;6.502;2023-02-28T10:56:19;2.10;;;2.00;;
76157;SDS011;64907;51.574;6.502;2023-02-28T11:01:18;3.08;;;2.03;;
76157;SDS011;64907;51.574;6.502;2023-02-28T11:03:46;2.58;;;2.38;;
76157;SDS011;64907;51.574;6.502;2023-02-28T11:08:53;1.80;;;1.70;;
76157;SDS011;64907;51.574;6.502;2023-02-28T11:11:19;1.67;;;1.67;;
76157;SDS011;64907;51.574;6.502;2023-02-28T11:13:47;1.80;;;1.70;;
76157;SDS011;64907;51.574;6.502;2023-02-28T11:16:15;3.35;;;2.03;;
76157;SDS011;64907;51.574;6.502;2023-02-28T11:18:50;2.25;;;1.70;;
76157;SDS011;64907;51.574;6.502;2023-02-28T11:21:18;2.00;;;1.90;;
76157;SDS011;64907;51.574;6.502;2023-02-28T11:23:54;1.90;;;1.80;;
76157;SDS011;64907;51.574;6.502;2023-02-28T11:26:35;2.17;;;2.00;;
76157;SDS011;64907;51.574;6.502;2023-02-28T11:29:19;2.28;;;2.00;;
76157;SDS011;64907;51.574;6.502;2023-02-28T11:32:00;1.92;;;1.83;;
76157;SDS011;64907;51.574;6.502;2023-02-28T11:34:26;2.60;;;2.38;;
76157;SDS011;64907;51.574;6.502;2023-02-28T11:36:52;1.80;;;1.80;;
76157;SDS011;64907;51.574;6.502;2023-02-28T11:39:18;2.58;;;2.38;;
76157;SDS011;64907;51.574;6.502;2023-02-28T11:41:49;2.80;;;2.55;;
76157;SDS011;64907;51.574;6.502;2023-02-28T11:44:24;2.47;;;2.22;;
76157;SDS011;64907;51.574;6.502;2023-02-28T11:46:58;2.83;;;2.47;;
76157;SDS011;64907;51.574;6.502;2023-02-28T11:51:53;3.30;;;3.00;;
76157;SDS011;64907;51.574;6.502;2023-02-28T11:57:03;2.97;;;2.85;;
76157;SDS011;64907;51.574;6.502;2023-02-28T12:04:52;3.97;;;2.65;;
76157;SDS011;64907;51.574;6.502;2023-02-28T12:17:51;3.05;;;2.85;;
76157;SDS011;64907;51.574;6.502;2023-02-28T12:20:22;3.55;;;3.15;;
76157;SDS011;64907;51.574;6.502;2023-02-28T12:23:03;3.40;;;3.10;;
76157;SDS011;64907;51.574;6.502;2023-02-28T12:25:39;3.45;;;2.90;;
76157;SDS011;64907;51.574;6.502;2023-02-28T12:28:10;4.90;;;2.80;;
76157;SDS011;64907;51.574;6.502;2023-02-28T12:30:36;2.90;;;2.70;;
76157;SDS011;64907;51.574;6.502;2023-02-28T12:38:13;3.15;;;2.88;;
76157;SDS011;64907;51.574;6.502;2023-02-28T12:40:44;3.08;;;2.88;;
76157;SDS011;64907;51.574;6.502;2023-02-28T12:43:09;2.95;;;2.65;;
76157;SDS011;64907;51.574;6.502;2023-02-28T12:48:04;5.40;;;2.45;;
76157;SDS011;64907;51.574;6.502;2023-02-28T12:50:30;4.38;;;2.70;;
76157;SDS011;64907;51.574;6.502;2023-02-28T12:53:02;2.40;;;2.30;;
76157;SDS011;64907;51.574;6.502;2023-02-28T13:01:13;2.47;;;2.38;;
76157;SDS011;64907;51.574;6.502;2023-02-28T13:06:19;2.75;;;2.55;;
76157;SDS011;64907;51.574;6.502;2023-02-28T13:11:25;2.72;;;2.60;;
76157;SDS011;64907;51.574;6.502;2023-02-28T13:13:59;2.40;;;2.20;;
76157;SDS011;64907;51.574;6.502;2023-02-28T13:16:25;2.45;;;2.35;;
76157;SDS011;64907;51.574;6.502;2023-02-28T13:18:52;2.40;;;2.15;;
76157;SDS011;64907;51.574;6.502;2023-02-28T13:21:32;3.28;;;2.80;;
76157;SDS011;64907;51.574;6.502;2023-02-28T13:24:07;2.75;;;2.63;;
76157;SDS011;64907;51.574;6.502;2023-02-28T13:29:03;2.58;;;2.47;;
76157;SDS011;64907;51.574;6.502;2023-02-28T13:31:29;2.45;;;2.20;;
76157;SDS011;64907;51.574;6.502;2023-02-28T13:36:29;2.17;;;1.92;;
76157;SDS011;64907;51.574;6.502;2023-02-28T13:46:27;2.55;;;2.45;;
76157;SDS011;64907;51.574;6.502;2023-02-28T13:48:52;2.80;;;2.38;;
76157;SDS011;64907;51.574;6.502;2023-02-28T13:51:38;2.50;;;2.40;;
76157;SDS011;64907;51.574;6.502;2023-02-28T13:54:29;2.88;;;2.70;;
76157;SDS011;64907;51.574;6.502;2023-02-28T13:57:10;2.83;;;2.63;;
76157;SDS011;64907;51.574;6.502;2023-02-28T13:59:45;2.80;;;2.60;;
76157;SDS011;64907;51.574;6.502;2023-02-28T14:02:28;2.47;;;2.38;;
76157;SDS011;64907;51.574;6.502;2023-02-28T14:07:23;2.83;;;2.63;;
76157;SDS011;64907;51.574;6.502;2023-02-28T14:10:00;2.42;;;2.33;;
76157;SDS011;64907;51.574;6.502;2023-02-28T14:17:57;4.82;;;2.85;;
76157;SDS011;64907;51.574;6.502;2023-02-28T14:20:26;2.70;;;2.60;;
76157;SDS011;64907;51.574;6.502;2023-02-28T14:22:54;3.03;;;2.50;;
76157;SDS011;64907;51.574;6.502;2023-02-28T14:25:37;2.40;;;2.30;;
76157;SDS011;64907;51.574;6.502;2023-02-28T14:30:53;2.08;;;2.08;;
76157;SDS011;64907;51.574;6.502;2023-02-28T14:38:27;3.45;;;2.90;;
76157;SDS011;64907;51.574;6.502;2023-02-28T14:40:55;2.00;;;2.00;;
76157;SDS011;64907;51.574;6.502;2023-02-28T14:43:22;2.42;;;2.22;;
76157;SDS011;64907;51.574;6.502;2023-02-28T14:45:52;2.55;;;2.45;;
76157;SDS011;64907;51.574;6.502;2023-02-28T14:48:19;2.40;;;2.20;;
76157;SDS011;64907;51.574;6.502;2023-02-28T14:50:49;2.55;;;2.35;;
76157;SDS011;64907;51.574;6.502;2023-02-28T14:53:15;2.30;;;2.20;;
76157;SDS011;64907;51.574;6.502;2023-02-28T14:55:47;2.30;;;2.20;;
76157;SDS011;64907;51.574;6.502;2023-02-28T14:58:18;1.90;;;1.85;;
76157;SDS011;64907;51.574;6.502;2023-02-28T15:00:48;3.20;;;2.10;;
76157;SDS011;64907;51.574;6.502;2023-02-28T15:03:21;2.20;;;2.10;;
76157;SDS011;64907;51.574;6.502;2023-02-28T15:05:55;2.65;;;2.30;;
76157;SDS011;64907;51.574;6.502;2023-02-28T15:08:20;2.38;;;2.25;;
76157;SDS011;64907;51.574;6.502;2023-02-28T15:10:50;2.42;;;2.15;;
76157;SDS011;64907;51.574;6.502;2023-02-28T15:13:16;2.83;;;2.47;;
76157;SDS011;64907;51.574;6.502;2023-02-28T15:16:01;2.22;;;2.13;;
76157;SDS011;64907;51.574;6.502;2023-02-28T15:20:53;3.00;;;2.35;;
76157;SDS011;64907;51.574;6.502;2023-02-28T15:23:19;2.42;;;2.33;;
76157;SDS011;64907;51.574;6.502;2023-02-28T15:25:46;3.03;;;2.45;;
76157;SDS011;64907;51.574;6.502;2023-02-28T15:28:12;2.70;;;2.50;;
76157;SDS011;64907;51.574;6.502;2023-02-28T15:33:27;2.50;;;2.40;;
76157;SDS011;64907;51.574;6.502;2023-02-28T15:36:15;2.75;;;2.55;;
76157;SDS011;64907;51.574;6.502;2023-02-28T15:38:40;4.22;;;2.45;;
76157;SDS011;64907;51.574;6.502;2023-02-28T15:41:20;2.60;;;2.40;;
76157;SDS011;64907;51.574;6.502;2023-02-28T15:43:46;2.38;;;2.25;;
76157;SDS011;64907;51.574;6.502;2023-02-28T15:46:12;2.60;;;2.38;;
76157;SDS011;64907;51.574;6.502;2023-02-28T15:51:08;2.80;;;2.60;;
76157;SDS011;64907;51.574;6.502;2023-02-28T15:57:11;2.55;;;2.42;;
76157;SDS011;64907;51.574;6.502;2023-02-28T15:59:27;3.33;;;2.75;;
76157;SDS011;64907;51.574;6.502;2023-02-28T16:02:03;2.95;;;2.75;;
76157;SDS011;64907;51.574;6.502;2023-02-28T16:04:36;2.80;;;2.60;;
76157;SDS011;64907;51.574;6.502;2023-02-28T16:07:03;2.53;;;2.42;;
76157;SDS011;64907;51.574;6.502;2023-02-28T16:09:29;3.25;;;2.85;;
76157;SDS011;64907;51.574;6.502;2023-02-28T16:11:55;2.80;;;2.70;;
76157;SDS011;64907;51.574;6.502;2023-02-28T16:14:22;3.00;;;2.80;;
76157;SDS011;64907;51.574;6.502;2023-02-28T16:16:49;2.88;;;2.67;;
76157;SDS011;64907;51.574;6.502;2023-02-28T16:19:14;3.40;;;2.97;;
76157;SDS011;64907;51.574;6.502;2023-02-28T16:21:40;5.85;;;3.65;;
76157;SDS011;64907;51.574;6.502;2023-02-28T16:24:06;3.20;;;3.00;;
76157;SDS011;64907;51.574;6.502;2023-02-28T16:26:32;4.18;;;3.22;;
76157;SDS011;64907;51.574;6.502;2023-02-28T16:28:59;4.38;;;3.00;;
76157;SDS011;64907;51.574;6.502;2023-02-28T16:31:24;3.83;;;3.53;;
76157;SDS011;64907;51.574;6.502;2023-02-28T16:33:49;3.53;;;3.33;;
76157;SDS011;64907;51.574;6.502;2023-02-28T16:36:15;3.65;;;3.25;;
76157;SDS011;64907;51.574;6.502;2023-02-28T16:38:41;4.13;;;3.53;;
76157;SDS011;64907;51.574;6.502;2023-02-28T16:41:06;5.93;;;3.67;;
76157;SDS011;64907;51.574;6.502;2023-02-28T16:43:31;4.88;;;3.30;;
76157;SDS011;64907;51.574;6.502;2023-02-28T16:48:28;4.03;;;3.60;;
76157;SDS011;64907;51.574;6.502;2023-02-28T16:50:55;3.70;;;3.17;;
76157;SDS011;64907;51.574;6.502;2023-02-28T16:53:20;3.72;;;3.42;;
76157;SDS011;64907;51.574;6.502;2023-02-28T16:55:49;3.58;;;3.38;;
76157;SDS011;64907;51.574;6.502;2023-02-28T16:58:17;3.72;;;3.10;;
76157;SDS011;64907;51.574;6.502;2023-02-28T17:03:34;3.90;;;3.58;;
76157;SDS011;64907;51.574;6.502;2023-02-28T17:06:01;4.80;;;3.15;;
76157;SDS011;64907;51.574;6.502;2023-02-28T17:08:26;5.22;;;3.55;;
76157;SDS011;64907;51.574;6.502;2023-02-28T17:13:29;3.58;;;3.38;;
76157;SDS011;64907;51.574;6.502;2023-02-28T17:15:54;3.70;;;3.50;;